createdAt,value
2018-02-13T00:01:46.079Z,-1.50
2018-02-13T00:04:13.678Z,-1.60
2018-02-13T00:06:41.272Z,-1.50
2018-02-13T00:09:08.858Z,-1.50
2018-02-13T00:11:36.430Z,-1.60
2018-02-13T00:14:04.017Z,-1.70
2018-02-13T00:16:32.352Z,-1.80
2018-02-13T00:18:59.944Z,-1.80
2018-02-13T00:21:28.273Z,-1.70
2018-02-13T00:23:55.862Z,-1.70
2018-02-13T00:26:23.444Z,-1.80
2018-02-13T00:28:51.808Z,-1.70
2018-02-13T00:31:20.135Z,-1.70
2018-02-13T00:33:47.716Z,-1.70
2018-02-13T00:36:15.278Z,-1.80
2018-02-13T00:38:43.200Z,-1.90
2018-02-13T00:41:10.791Z,-1.90
2018-02-13T00:43:38.378Z,-1.90
2018-02-13T00:46:05.959Z,-1.90
2018-02-13T00:48:33.568Z,-1.90
2018-02-13T00:51:01.157Z,-2.00
2018-02-13T00:53:28.724Z,-2.00
2018-02-13T00:55:56.338Z,-2.00
2018-02-13T00:58:23.916Z,-2.00
2018-02-13T01:00:51.521Z,-2.00
2018-02-13T01:03:19.865Z,-2.00
2018-02-13T01:05:47.454Z,-2.00
2018-02-13T01:08:15.032Z,-2.10
2018-02-13T01:10:42.621Z,-2.00
2018-02-13T01:13:10.186Z,-1.90
2018-02-13T01:15:37.775Z,-2.00
2018-02-13T01:18:05.342Z,-1.90
2018-02-13T01:20:32.941Z,-1.90
2018-02-13T01:23:01.201Z,-1.90
2018-02-13T01:25:28.811Z,-2.00
2018-02-13T01:27:56.407Z,-2.20
2018-02-13T01:30:23.995Z,-2.10
2018-02-13T01:32:52.425Z,-2.10
2018-02-13T01:35:20.012Z,-2.10
2018-02-13T01:37:47.573Z,-2.10
2018-02-13T01:40:15.168Z,-1.90
2018-02-13T01:42:42.745Z,-2.10
2018-02-13T01:45:10.341Z,-2.10
2018-02-13T01:47:38.674Z,-2.20
2018-02-13T01:50:18.177Z,-2.20
2018-02-13T01:52:45.746Z,-2.20
2018-02-13T01:55:13.316Z,-2.20
2018-02-13T01:57:40.905Z,-2.20
2018-02-13T02:00:08.484Z,-2.10
2018-02-13T02:02:36.093Z,-2.20
2018-02-13T02:05:03.672Z,-2.10
2018-02-13T02:07:31.256Z,-2.20
2018-02-13T02:09:59.579Z,-2.10
2018-02-13T02:12:27.196Z,-2.10
2018-02-13T02:14:54.763Z,-2.10
2018-02-13T02:17:22.359Z,-2.10
2018-02-13T02:19:49.930Z,-2.20
2018-02-13T02:22:17.508Z,-2.10
2018-02-13T02:24:45.074Z,-2.20
2018-02-13T02:27:12.665Z,-2.00
2018-02-13T02:29:41.001Z,-2.10
2018-02-13T02:32:08.594Z,-2.20
2018-02-13T02:34:36.939Z,-1.90
2018-02-13T02:37:04.528Z,-2.00
2018-02-13T02:39:33.029Z,-2.00
2018-02-13T02:42:00.616Z,-2.00
2018-02-13T02:44:28.191Z,-2.10
2018-02-13T02:46:55.797Z,-2.10
2018-02-13T02:49:24.152Z,-2.20
2018-02-13T02:51:52.506Z,-2.20
2018-02-13T02:54:20.346Z,-2.20
2018-02-13T02:56:47.941Z,-2.20
2018-02-13T02:59:15.516Z,-2.10
2018-02-13T03:01:43.852Z,-1.80
2018-02-13T03:04:11.442Z,-1.80
2018-02-13T03:06:39.005Z,-1.90
2018-02-13T03:09:06.610Z,-2.00
2018-02-13T03:11:34.169Z,-1.90
2018-02-13T03:14:01.853Z,-1.80
2018-02-13T03:16:29.417Z,-1.70
2018-02-13T03:18:57.052Z,-1.70
2018-02-13T03:21:24.612Z,-1.80
2018-02-13T03:23:52.208Z,-1.90
2018-02-13T03:26:19.815Z,-1.80
2018-02-13T03:28:47.385Z,-1.90
2018-02-13T03:31:14.949Z,-1.90
2018-02-13T03:33:42.546Z,-1.80
2018-02-13T03:36:10.109Z,-1.80
2018-02-13T03:38:37.702Z,-1.70
2018-02-13T03:41:05.265Z,-1.60
2018-02-13T03:43:34.212Z,-1.60
2018-02-13T03:46:01.772Z,-1.60
2018-02-13T03:48:29.362Z,-1.70
2018-02-13T03:50:57.701Z,-1.80
2018-02-13T03:53:25.299Z,-1.80
2018-02-13T03:55:52.857Z,-1.80
2018-02-13T03:58:21.208Z,-1.90
2018-02-13T04:00:48.769Z,-1.90
2018-02-13T04:03:16.363Z,-1.90
2018-02-13T04:05:43.939Z,-1.90
2018-02-13T04:08:11.500Z,-2.00
2018-02-13T04:10:39.082Z,-1.90
2018-02-13T04:13:06.656Z,-1.80
2018-02-13T04:15:34.257Z,-1.80
2018-02-13T04:18:01.821Z,-1.80
2018-02-13T04:20:29.400Z,-1.90
2018-02-13T04:22:56.974Z,-1.90
2018-02-13T04:25:24.568Z,-2.00
2018-02-13T04:27:52.158Z,-2.10
2018-02-13T04:30:19.744Z,-2.10
2018-02-13T04:32:47.301Z,-2.20
2018-02-13T04:35:14.888Z,-2.20
2018-02-13T04:37:42.457Z,-2.00
2018-02-13T04:40:10.046Z,-2.10
2018-02-13T04:42:37.607Z,-2.10
2018-02-13T04:45:05.203Z,-2.00
2018-02-13T04:47:32.765Z,-2.10
2018-02-13T04:50:00.357Z,-2.20
2018-02-13T04:52:27.975Z,-2.20
2018-02-13T04:54:55.567Z,-2.30
2018-02-13T04:57:23.131Z,-2.20
2018-02-13T04:59:50.722Z,-2.30
2018-02-13T05:02:18.296Z,-2.30
2018-02-13T05:04:45.876Z,-2.30
2018-02-13T05:07:13.437Z,-2.10
2018-02-13T05:09:41.035Z,-2.10
2018-02-13T05:12:08.600Z,-2.00
2018-02-13T05:14:36.940Z,-2.20
2018-02-13T05:17:04.528Z,-2.20
2018-02-13T05:19:32.088Z,-2.20
2018-02-13T05:21:59.733Z,-2.20
2018-02-13T05:24:27.306Z,-2.20
2018-02-13T05:26:54.896Z,-2.30
2018-02-13T05:29:23.473Z,-2.30
2018-02-13T05:31:51.131Z,-2.30
2018-02-13T05:34:18.692Z,-2.30
2018-02-13T05:36:46.583Z,-2.30
2018-02-13T05:39:14.140Z,-2.40
2018-02-13T05:41:41.932Z,-2.30
2018-02-13T05:44:09.576Z,-2.20
2018-02-13T05:46:37.156Z,-2.10
2018-02-13T05:49:04.740Z,-2.10
2018-02-13T05:51:32.328Z,-2.20
2018-02-13T05:53:59.947Z,-2.30
2018-02-13T05:56:29.526Z,-2.30
2018-02-13T05:59:02.169Z,-2.10
2018-02-13T06:01:29.801Z,-2.10
2018-02-13T06:03:57.373Z,-2.30
2018-02-13T06:06:24.964Z,-2.40
2018-02-13T06:08:52.526Z,-2.50
2018-02-13T06:11:20.104Z,-2.50
2018-02-13T06:13:47.664Z,-2.50
2018-02-13T06:16:15.596Z,-2.40
2018-02-13T06:18:43.346Z,-2.50
2018-02-13T06:21:11.327Z,-2.60
2018-02-13T06:23:39.657Z,-2.60
2018-02-13T06:26:07.293Z,-2.70
2018-02-13T06:28:34.852Z,-2.70
2018-02-13T06:31:02.418Z,-2.70
2018-02-13T06:33:30.011Z,-2.60
2018-02-13T06:35:58.336Z,-2.70
2018-02-13T06:38:25.977Z,-2.70
2018-02-13T06:40:53.508Z,-2.70
2018-02-13T06:43:21.106Z,-2.80
2018-02-13T06:45:48.664Z,-2.80
2018-02-13T06:48:16.254Z,-2.80
2018-02-13T06:50:43.821Z,-2.80
2018-02-13T06:53:11.415Z,-2.90
2018-02-13T06:55:38.975Z,-2.80
2018-02-13T06:58:07.368Z,-2.80
2018-02-13T07:00:34.924Z,-2.80
2018-02-13T07:03:02.520Z,-2.90
2018-02-13T07:05:30.102Z,-2.90
2018-02-13T07:07:57.712Z,-2.90
2018-02-13T07:10:25.285Z,-3.00
2018-02-13T07:12:53.545Z,-2.90
2018-02-13T07:15:21.109Z,-2.80
2018-02-13T07:17:48.697Z,-2.80
2018-02-13T07:20:16.261Z,-2.80
2018-02-13T07:22:43.857Z,-2.80
2018-02-13T07:25:12.196Z,-2.70
2018-02-13T07:27:39.785Z,-2.70
2018-02-13T07:30:07.348Z,-2.80
2018-02-13T07:32:35.725Z,-2.70
2018-02-13T07:35:04.056Z,-2.70
2018-02-13T07:37:31.620Z,-2.70
2018-02-13T07:39:59.211Z,-2.70
2018-02-13T07:42:26.788Z,-2.50
2018-02-13T07:44:54.383Z,-2.60
2018-02-13T07:47:21.949Z,-2.70
2018-02-13T07:49:49.540Z,-2.50
2018-02-13T07:52:17.118Z,-2.10
2018-02-13T07:54:45.233Z,-1.60
2018-02-13T07:57:14.195Z,-0.40
2018-02-13T07:59:41.862Z,-0.40
2018-02-13T08:02:09.432Z,0.30
2018-02-13T08:04:37.012Z,0.90
2018-02-13T08:07:04.755Z,1.50
2018-02-13T08:09:32.336Z,2.20
2018-02-13T08:11:59.888Z,2.80
2018-02-13T08:14:27.469Z,3.30
2018-02-13T08:16:55.070Z,3.80
2018-02-13T08:19:22.855Z,4.40
2018-02-13T08:21:50.428Z,4.90
2018-02-13T08:24:18.022Z,5.40
2018-02-13T08:26:45.576Z,5.80
2018-02-13T08:29:14.321Z,6.20
2018-02-13T08:31:41.896Z,6.60
2018-02-13T08:34:09.477Z,7.10
2018-02-13T08:36:37.039Z,7.50
2018-02-13T08:39:04.634Z,7.90
2018-02-13T08:41:32.188Z,8.30
2018-02-13T08:44:02.007Z,9.10
2018-02-13T08:46:29.642Z,9.10
2018-02-13T08:48:57.201Z,9.40
2018-02-13T08:51:24.826Z,9.80
2018-02-13T08:53:52.401Z,10.00
2018-02-13T08:56:19.995Z,10.30
2018-02-13T08:58:49.136Z,10.70
2018-02-13T09:01:17.491Z,11.10
2018-02-13T09:03:45.066Z,11.10
2018-02-13T09:06:12.702Z,11.30
2018-02-13T09:08:40.264Z,11.60
2018-02-13T09:11:07.853Z,11.70
2018-02-13T09:13:35.477Z,11.80
2018-02-13T09:16:03.081Z,12.20
2018-02-13T09:18:30.648Z,12.40
2018-02-13T09:20:58.240Z,12.70
2018-02-13T09:23:26.574Z,13.40
2018-02-13T09:25:54.174Z,13.30
2018-02-13T09:28:21.732Z,13.70
2018-02-13T09:30:50.090Z,14.50
2018-02-13T09:33:17.688Z,14.40
2018-02-13T09:35:45.298Z,14.90
2018-02-13T09:38:13.392Z,15.10
2018-02-13T09:40:41.290Z,15.20
2018-02-13T09:43:08.853Z,15.60
2018-02-13T09:45:36.449Z,16.00
2018-02-13T09:48:04.054Z,16.30
2018-02-13T09:50:32.408Z,16.90
2018-02-13T09:52:59.981Z,16.90
2018-02-13T09:55:28.349Z,16.80
2018-02-13T09:57:56.691Z,16.90
2018-02-13T10:00:24.264Z,16.90
2018-02-13T10:02:51.844Z,17.10
2018-02-13T10:05:20.181Z,17.30
2018-02-13T10:07:47.772Z,17.20
2018-02-13T10:10:15.352Z,17.70
2018-02-13T10:12:43.708Z,17.50
2018-02-13T10:15:11.349Z,17.50
2018-02-13T10:17:38.926Z,17.60
2018-02-13T10:20:06.509Z,17.30
2018-02-13T10:22:34.087Z,17.80
2018-02-13T10:25:01.657Z,17.90
2018-02-13T10:27:29.249Z,18.20
2018-02-13T10:29:57.071Z,18.30
2018-02-13T10:32:24.668Z,17.80
2018-02-13T10:34:52.232Z,17.40
2018-02-13T10:37:19.861Z,17.90
2018-02-13T10:39:47.479Z,18.10
2018-02-13T10:42:15.853Z,17.80
2018-02-13T10:44:44.186Z,18.10
2018-02-13T10:47:11.786Z,18.00
2018-02-13T10:49:40.129Z,18.30
2018-02-13T10:52:07.713Z,18.30
2018-02-13T10:54:35.272Z,18.60
2018-02-13T10:57:02.862Z,18.60
2018-02-13T10:59:32.001Z,18.40
2018-02-13T11:02:05.956Z,18.20
2018-02-13T11:04:33.567Z,18.20
2018-02-13T11:07:01.157Z,18.40
2018-02-13T11:09:28.720Z,18.70
2018-02-13T11:11:56.298Z,18.90
2018-02-13T11:14:23.886Z,18.50
2018-02-13T11:16:51.457Z,18.20
2018-02-13T11:19:19.061Z,17.90
2018-02-13T11:21:47.404Z,17.90
2018-02-13T11:24:15.800Z,17.90
2018-02-13T11:26:43.397Z,17.70
2018-02-13T11:29:11.004Z,17.80
2018-02-13T11:31:38.575Z,17.60
2018-02-13T11:34:06.181Z,17.70
2018-02-13T11:36:33.759Z,17.00
2018-02-13T11:39:01.340Z,17.20
2018-02-13T11:41:28.918Z,17.20
2018-02-13T11:43:56.529Z,16.70
2018-02-13T11:46:24.108Z,16.40
2018-02-13T11:48:51.692Z,15.80
2018-02-13T11:51:19.261Z,15.20
2018-02-13T11:53:46.857Z,14.60
2018-02-13T11:56:14.424Z,13.90
2018-02-13T11:58:42.030Z,13.30
2018-02-13T12:01:09.654Z,13.00
2018-02-13T12:03:37.260Z,12.60
2018-02-13T12:06:04.825Z,12.20
2018-02-13T12:08:32.412Z,12.00
2018-02-13T12:10:59.980Z,11.60
2018-02-13T12:13:27.573Z,11.00
2018-02-13T12:15:55.134Z,10.90
2018-02-13T12:18:22.701Z,10.50
2018-02-13T12:20:50.292Z,10.10
2018-02-13T12:23:17.857Z,9.80
2018-02-13T12:25:46.229Z,9.60
2018-02-13T12:28:14.554Z,9.50
2018-02-13T12:30:42.138Z,9.40
2018-02-13T12:33:09.703Z,9.30
2018-02-13T12:35:37.318Z,9.20
2018-02-13T12:38:04.880Z,9.00
2018-02-13T12:40:32.484Z,9.00
2018-02-13T12:43:00.050Z,8.70
2018-02-13T12:45:28.400Z,8.40
2018-02-13T12:47:55.970Z,8.40
2018-02-13T12:50:23.556Z,8.50
2018-02-13T12:52:51.881Z,8.30
2018-02-13T12:55:19.456Z,8.30
2018-02-13T12:57:47.018Z,8.10
2018-02-13T13:00:14.611Z,7.90
2018-02-13T13:02:42.942Z,7.60
2018-02-13T13:05:10.545Z,7.50
2018-02-13T13:07:38.890Z,7.70
2018-02-13T13:10:06.478Z,7.70
2018-02-13T13:12:34.804Z,7.80
2018-02-13T13:15:02.404Z,7.70
2018-02-13T13:17:29.999Z,7.80
2018-02-13T13:19:57.570Z,7.80
2018-02-13T13:22:25.159Z,7.60
2018-02-13T13:24:52.782Z,7.50
2018-02-13T13:27:20.369Z,7.30
2018-02-13T13:29:47.937Z,7.40
2018-02-13T13:32:15.527Z,7.50
2018-02-13T13:34:43.090Z,7.40
2018-02-13T13:37:11.446Z,7.10
2018-02-13T13:39:39.022Z,7.10
2018-02-13T13:42:06.660Z,7.10
2018-02-13T13:44:34.217Z,7.10
2018-02-13T13:47:01.804Z,7.00
2018-02-13T13:49:29.356Z,7.00
2018-02-13T13:51:57.712Z,6.80
2018-02-13T13:54:25.276Z,6.80
2018-02-13T13:56:52.858Z,6.70
2018-02-13T13:59:20.412Z,6.60
2018-02-13T14:01:49.385Z,6.70
2018-02-13T14:04:16.947Z,6.60
2018-02-13T14:06:44.530Z,6.60
2018-02-13T14:09:12.101Z,6.70
2018-02-13T14:11:39.696Z,6.60
2018-02-13T14:14:07.257Z,6.40
2018-02-13T14:16:34.880Z,6.50
2018-02-13T14:19:02.445Z,6.40
2018-02-13T14:21:30.042Z,6.50
2018-02-13T14:23:57.608Z,6.40
2018-02-13T14:26:25.965Z,6.20
2018-02-13T14:28:53.519Z,6.20
2018-02-13T14:31:21.142Z,6.10
2018-02-13T14:33:48.742Z,6.10
2018-02-13T14:36:16.300Z,6.00
2018-02-13T14:38:43.880Z,6.10
2018-02-13T14:41:11.441Z,6.10
2018-02-13T14:43:39.033Z,6.10
2018-02-13T14:46:06.592Z,6.00
2018-02-13T14:48:34.172Z,6.00
2018-02-13T14:51:01.741Z,6.00
2018-02-13T14:53:29.341Z,5.90
2018-02-13T14:55:56.907Z,5.80
2018-02-13T14:58:24.487Z,5.80
2018-02-13T15:00:52.077Z,5.80
2018-02-13T15:03:19.662Z,5.80
2018-02-13T15:05:47.226Z,5.80
2018-02-13T15:08:14.817Z,5.70
2018-02-13T15:10:42.393Z,5.70
2018-02-13T15:13:09.985Z,5.80
2018-02-13T15:15:37.549Z,5.70
2018-02-13T15:18:23.846Z,5.70
2018-02-13T15:20:51.400Z,5.70
2018-02-13T15:23:19.002Z,5.50
2018-02-13T15:25:46.599Z,5.50
2018-02-13T15:28:14.180Z,5.40
2018-02-13T15:30:41.737Z,5.40
2018-02-13T15:33:10.037Z,5.40
2018-02-13T15:35:37.616Z,5.40
2018-02-13T15:38:05.228Z,5.30
2018-02-13T15:40:32.817Z,5.20
2018-02-13T15:43:00.384Z,5.20
2018-02-13T15:45:28.030Z,5.10
2018-02-13T15:47:55.600Z,5.10
2018-02-13T15:50:23.193Z,5.10
2018-02-13T15:52:50.761Z,5.10
2018-02-13T15:55:18.352Z,5.00
2018-02-13T15:57:47.888Z,4.90
2018-02-13T16:00:16.318Z,4.80
2018-02-13T16:05:30.450Z,4.90
2018-02-13T16:07:58.785Z,4.80
2018-02-13T16:10:26.381Z,4.80
2018-02-13T16:12:54.715Z,4.80
2018-02-13T16:15:22.313Z,4.70
2018-02-13T16:17:50.112Z,4.70
2018-02-13T16:20:17.689Z,4.60
2018-02-13T16:22:45.366Z,4.60
2018-02-13T16:25:13.024Z,4.60
2018-02-13T16:27:41.608Z,4.50
2018-02-13T16:30:10.043Z,4.40
2018-02-13T16:32:37.709Z,4.30
2018-02-13T16:35:06.622Z,4.40
2018-02-13T16:37:34.288Z,4.30
2018-02-13T16:40:01.943Z,4.20
2018-02-13T16:42:29.628Z,4.00
2018-02-13T16:44:57.253Z,4.00
2018-02-13T16:47:24.861Z,3.90
2018-02-13T16:49:52.491Z,3.90
2018-02-13T16:52:20.082Z,3.80
2018-02-13T16:54:47.733Z,3.80
2018-02-13T16:57:15.316Z,3.50
2018-02-13T16:59:42.886Z,3.70
2018-02-13T17:02:10.485Z,3.50
2018-02-13T17:04:38.072Z,3.30
2018-02-13T17:07:06.443Z,3.20
2018-02-13T17:09:34.000Z,3.20
2018-02-13T17:12:01.592Z,3.10
2018-02-13T17:14:30.088Z,3.00
2018-02-13T17:17:00.824Z,2.90
2018-02-13T17:19:30.347Z,2.70
2018-02-13T17:21:59.587Z,2.60
2018-02-13T17:24:27.201Z,2.40
2018-02-13T17:26:54.814Z,2.30
2018-02-13T17:29:22.376Z,2.20
2018-02-13T17:31:50.003Z,2.20
2018-02-13T17:34:17.567Z,2.10
2018-02-13T17:36:45.181Z,1.80
2018-02-13T17:39:13.525Z,1.70
2018-02-13T17:41:41.116Z,1.60
2018-02-13T17:44:08.707Z,1.50
2018-02-13T17:46:36.304Z,1.60
2018-02-13T17:49:03.881Z,1.60
2018-02-13T17:51:31.513Z,1.50
2018-02-13T17:53:59.092Z,1.30
2018-02-13T17:56:27.457Z,1.30
2018-02-13T17:58:55.034Z,1.20
2018-02-13T18:01:23.413Z,1.10
2018-02-13T18:03:51.902Z,1.10
2018-02-13T18:06:19.478Z,1.00
2018-02-13T18:08:47.055Z,0.80
2018-02-13T18:11:14.618Z,0.50
2018-02-13T18:13:42.234Z,0.50
2018-02-13T18:16:10.586Z,0.50
2018-02-13T18:18:38.213Z,0.50
2018-02-13T18:21:06.498Z,0.80
2018-02-13T18:23:34.072Z,0.50
2018-02-13T18:26:01.654Z,0.50
2018-02-13T18:28:29.317Z,0.30
2018-02-13T18:30:58.607Z,0.30
2018-02-13T18:33:26.215Z,0.20
2018-02-13T18:35:53.816Z,0.10
2018-02-13T18:38:21.426Z,0.10
2018-02-13T18:40:50.563Z,0.10
2018-02-13T18:43:18.779Z,0.10
2018-02-13T18:45:46.352Z,0.20
2018-02-13T18:48:13.943Z,0.20
2018-02-13T18:50:41.533Z,0.10
2018-02-13T18:55:36.657Z,0.10
2018-02-13T18:58:04.255Z,0.00
2018-02-13T19:00:32.012Z,0.10
2018-02-13T19:02:59.621Z,0.10
2018-02-13T19:05:27.193Z,-0.10
2018-02-13T19:07:54.822Z,0.00
2018-02-13T19:10:22.409Z,-0.10
2018-02-13T19:12:50.022Z,-0.20
2018-02-13T19:15:17.599Z,-0.10
2018-02-13T19:17:45.259Z,-0.30
2018-02-13T19:20:13.260Z,-0.20
2018-02-13T19:22:40.908Z,-0.30
2018-02-13T19:25:08.489Z,-0.50
2018-02-13T19:27:36.080Z,-0.50
2018-02-13T19:30:03.662Z,-0.60
2018-02-13T19:32:31.257Z,-0.60
2018-02-13T19:34:58.840Z,-0.50
2018-02-13T19:37:26.404Z,-0.60
2018-02-13T19:39:55.731Z,-0.60
2018-02-13T19:42:23.321Z,-0.70
2018-02-13T19:44:53.276Z,-0.70
2018-02-13T19:47:20.908Z,-0.70
2018-02-13T19:49:48.549Z,-0.70
2018-02-13T19:52:16.134Z,-0.70
2018-02-13T19:54:43.737Z,-0.70
2018-02-13T19:57:11.923Z,-0.80
2018-02-13T19:59:39.610Z,-0.70
2018-02-13T20:02:07.972Z,-1.00
2018-02-13T20:04:37.169Z,-1.00
2018-02-13T20:07:05.573Z,-0.90
2018-02-13T20:09:35.049Z,-1.00
2018-02-13T20:12:02.670Z,-1.00
2018-02-13T20:14:30.277Z,-1.00
2018-02-13T20:16:57.869Z,-1.10
2018-02-13T20:19:25.505Z,-0.90
2018-02-13T20:21:53.069Z,-0.90
2018-02-13T20:24:21.435Z,-1.20
2018-02-13T20:26:49.006Z,-1.20
2018-02-13T20:29:16.608Z,-1.20
2018-02-13T20:31:44.330Z,-1.30
2018-02-13T20:34:11.916Z,-1.30
2018-02-13T20:36:39.710Z,-1.30
2018-02-13T20:39:07.338Z,-1.40
2018-02-13T20:41:35.928Z,-1.30
2018-02-13T20:44:04.370Z,-1.30
2018-02-13T20:46:32.252Z,-1.30
2018-02-13T20:48:59.907Z,-1.30
2018-02-13T20:51:28.551Z,-1.20
2018-02-13T20:53:56.245Z,-1.20
2018-02-13T20:56:23.999Z,-1.30
2018-02-13T20:58:52.391Z,-1.10
2018-02-13T21:01:20.075Z,-1.10
2018-02-13T21:03:47.792Z,-1.10
2018-02-13T21:06:15.656Z,-1.20
2018-02-13T21:08:43.366Z,-1.30
2018-02-13T21:11:11.024Z,-1.30
2018-02-13T21:13:38.598Z,-1.40
2018-02-13T21:16:06.916Z,-1.50
2018-02-13T21:18:34.529Z,-1.60
2018-02-13T21:21:06.857Z,-1.50
2018-02-13T21:23:37.244Z,-1.60
2018-02-13T21:26:05.178Z,-1.60
2018-02-13T21:28:33.634Z,-1.60
2018-02-13T21:31:01.241Z,-1.70
2018-02-13T21:33:28.950Z,-1.60
2018-02-13T21:35:56.542Z,-1.80
2018-02-13T21:38:24.197Z,-1.80
2018-02-13T21:40:51.968Z,-1.80
2018-02-13T21:43:19.633Z,-1.80
2018-02-13T21:45:48.146Z,-2.00
2018-02-13T21:48:17.060Z,-2.00
2018-02-13T21:50:44.661Z,-1.90
2018-02-13T21:53:13.040Z,-1.90
2018-02-13T21:55:40.718Z,-1.90
2018-02-13T21:58:08.468Z,-1.90
2018-02-13T22:00:36.049Z,-2.00
2018-02-13T22:03:03.758Z,-1.80
2018-02-13T22:05:31.619Z,-1.90
2018-02-13T22:07:59.292Z,-2.00
2018-02-13T22:10:26.895Z,-2.10
2018-02-13T22:12:54.494Z,-2.10
2018-02-13T22:15:23.199Z,-2.10
2018-02-13T22:17:50.865Z,-2.00
2018-02-13T22:20:18.443Z,-2.10
2018-02-13T22:22:46.828Z,-2.10
2018-02-13T22:25:15.168Z,-2.00
2018-02-13T22:27:42.773Z,-2.00
2018-02-13T22:30:11.108Z,-1.80
2018-02-13T22:32:38.714Z,-1.80
2018-02-13T22:35:06.293Z,-1.90
2018-02-13T22:37:33.896Z,-2.10
2018-02-13T22:40:01.529Z,-2.10
2018-02-13T22:42:29.120Z,-2.20
2018-02-13T22:44:56.707Z,-2.30
2018-02-13T22:47:25.070Z,-2.20
2018-02-13T22:49:53.411Z,-2.30
2018-02-13T22:52:21.574Z,-2.30
2018-02-13T22:54:49.163Z,-2.30
2018-02-13T22:57:16.786Z,-2.40
2018-02-13T22:59:44.856Z,-2.40
2018-02-13T23:02:12.429Z,-2.30
2018-02-13T23:04:40.009Z,-2.40
2018-02-13T23:07:07.609Z,-2.50
2018-02-13T23:09:35.199Z,-2.50
2018-02-13T23:12:02.815Z,-2.40
2018-02-13T23:14:30.400Z,-2.50
2018-02-13T23:16:58.847Z,-2.40
2018-02-13T23:19:27.192Z,-2.40
2018-02-13T23:21:54.761Z,-2.40
2018-02-13T23:24:22.368Z,-2.50
2018-02-13T23:26:50.584Z,-2.50
2018-02-13T23:29:18.174Z,-2.60
2018-02-13T23:31:46.062Z,-2.60
2018-02-13T23:34:13.668Z,-2.60
2018-02-13T23:36:41.238Z,-2.60
2018-02-13T23:39:08.881Z,-2.60
2018-02-13T23:41:36.465Z,-2.60
2018-02-13T23:44:04.090Z,-2.60
2018-02-13T23:46:31.685Z,-2.70
2018-02-13T23:48:59.333Z,-2.60
2018-02-13T23:51:27.580Z,-2.50
2018-02-13T23:53:55.175Z,-2.60
2018-02-13T23:56:22.757Z,-2.60
2018-02-13T23:58:51.178Z,-2.60
